Time;durP1;ratioP1;P1;durP2;ratioP2;P2;SDS_P1;SDS_P2;PMS_P1;PMS_P2;Temp;Humidity;BMP_temperature;BMP_pressure;BME280_temperature;BME280_humidity;BME280_pressure;Samples;Min_cycle;Max_cycle;Signal;HPM_P1;HPM_P2
2022/04/09 00:01:10;;;;;;;77.25;59.67;;;24.10;91.00;;;;;;4218457;28;20060;-69
2022/04/09 00:03:17;;;;;;;65.20;53.72;;;24.10;90.90;;;;;;4220639;28;20072;-63
2022/04/09 00:05:23;;;;;;;65.10;55.17;;;24.00;90.70;;;;;;4217849;28;20043;-68
2022/04/09 00:07:28;;;;;;;69.40;55.80;;;24.00;90.60;;;;;;4220590;28;20044;-68
2022/04/09 00:09:35;;;;;;;72.20;57.35;;;24.00;90.50;;;;;;4218983;28;20047;-68
2022/04/09 00:11:41;;;;;;;78.07;58.53;;;24.00;90.60;;;;;;4218916;28;20055;-67
2022/04/09 00:13:48;;;;;;;67.40;57.13;;;24.10;90.30;;;;;;4220467;28;20050;-69
2022/04/09 00:15:54;;;;;;;84.38;58.25;;;24.10;90.10;;;;;;4218750;28;20113;-67
2022/04/09 00:18:12;;;;;;;76.28;58.72;;;24.20;89.80;;;;;;4222267;28;20052;-68
2022/04/09 00:20:20;;;;;;;75.40;57.78;;;24.10;89.80;;;;;;4189322;28;20132;-67
2022/04/09 00:22:27;;;;;;;70.13;57.20;;;24.00;89.60;;;;;;4218835;28;20040;-68
2022/04/09 00:24:32;;;;;;;72.35;55.88;;;24.00;89.90;;;;;;4218426;28;20449;-68
2022/04/09 00:26:40;;;;;;;72.05;56.85;;;24.00;90.00;;;;;;4183416;28;20045;-68
2022/04/09 00:28:45;;;;;;;72.45;56.10;;;23.80;90.30;;;;;;4218024;28;20466;-67
2022/04/09 00:30:50;;;;;;;66.38;55.40;;;24.00;90.10;;;;;;4218206;28;20040;-67
2022/04/09 00:32:59;;;;;;;68.25;55.17;;;24.10;89.80;;;;;;4219385;28;20573;-67
2022/04/09 00:35:06;;;;;;;73.30;56.53;;;24.10;89.60;;;;;;4218723;28;20064;-66
2022/04/09 00:37:11;;;;;;;73.07;55.25;;;24.20;89.90;;;;;;4216539;28;20047;-68
2022/04/09 00:39:18;;;;;;;74.15;57.60;;;24.30;89.90;;;;;;4219227;28;20061;-67
2022/04/09 00:41:25;;;;;;;75.90;57.30;;;24.30;89.90;;;;;;4219268;28;20059;-68
2022/04/09 00:43:30;;;;;;;74.35;57.15;;;24.30;90.00;;;;;;4218786;28;20059;-67
2022/04/09 00:45:35;;;;;;;69.13;56.28;;;24.30;90.00;;;;;;4218578;28;20048;-67
2022/04/09 00:47:43;;;;;;;78.55;56.28;;;24.30;90.10;;;;;;4220565;28;20040;-67
2022/04/09 00:49:48;;;;;;;75.57;56.17;;;24.40;90.00;;;;;;4215393;28;20060;-66
2022/04/09 00:51:55;;;;;;;73.90;56.78;;;24.40;89.70;;;;;;4218836;28;20043;-67
2022/04/09 00:54:03;;;;;;;67.38;55.25;;;24.40;89.70;;;;;;4215758;28;20721;-66
2022/04/09 00:56:13;;;;;;;68.68;56.30;;;24.50;89.70;;;;;;4218856;28;20055;-67
2022/04/09 00:58:23;;;;;;;72.10;55.33;;;24.50;89.50;;;;;;4183252;28;20083;-66
2022/04/09 01:00:27;;;;;;;59.05;50.85;;;24.70;88.80;;;;;;4215648;28;20036;-68
2022/04/09 01:02:33;;;;;;;66.85;50.75;;;24.80;87.80;;;;;;4218757;28;20047;-66
2022/04/09 01:04:41;;;;;;;65.65;50.17;;;24.80;87.10;;;;;;4217841;28;20032;-68
2022/04/09 01:06:47;;;;;;;68.28;51.67;;;24.80;88.00;;;;;;4215925;28;20052;-68
2022/04/09 01:08:53;;;;;;;66.43;52.03;;;24.80;88.20;;;;;;4217408;28;20064;-67
2022/04/09 01:11:02;;;;;;;67.60;51.13;;;24.80;88.10;;;;;;4213720;28;20119;-68
2022/04/09 01:13:07;;;;;;;58.03;45.65;;;24.90;87.70;;;;;;4217674;28;20040;-67
2022/04/09 01:15:12;;;;;;;53.78;44.83;;;25.00;85.90;;;;;;4219213;28;20479;-67
2022/04/09 01:17:21;;;;;;;55.65;44.03;;;25.00;84.50;;;;;;4199259;28;20127;-66
2022/04/09 01:19:26;;;;;;;51.55;39.97;;;24.90;85.00;;;;;;4218935;28;20055;-67
2022/04/09 01:21:32;;;;;;;54.35;38.47;;;24.90;83.40;;;;;;4216155;28;20051;-67
2022/04/09 01:23:43;;;;;;;43.15;35.40;;;25.00;82.20;;;;;;4215905;28;20101;-67
2022/04/09 01:25:48;;;;;;;45.25;35.67;;;25.00;81.20;;;;;;4216100;28;20090;-67
2022/04/09 01:27:54;;;;;;;49.17;35.78;;;25.10;81.30;;;;;;4213971;28;20066;-66
2022/04/09 01:30:06;;;;;;;45.47;34.72;;;25.00;80.80;;;;;;4181919;28;20462;-68
2022/04/09 01:32:15;;;;;;;38.03;30.80;;;25.20;81.00;;;;;;4215711;28;20119;-67
2022/04/09 01:34:20;;;;;;;37.55;31.35;;;25.30;78.30;;;;;;4216857;28;20055;-67
2022/04/09 01:36:28;;;;;;;38.83;31.33;;;25.20;80.00;;;;;;4197056;28;20664;-68
2022/04/09 01:38:35;;;;;;;42.45;31.98;;;25.30;79.10;;;;;;4214246;28;20048;-68
2022/04/09 01:40:42;;;;;;;34.88;28.50;;;25.40;79.10;;;;;;4215970;28;20048;-67
2022/04/09 01:42:50;;;;;;;38.53;29.60;;;25.40;76.20;;;;;;4215823;28;20652;-68
2022/04/09 01:44:56;;;;;;;37.88;29.17;;;25.50;77.80;;;;;;4216167;28;20067;-68
2022/04/09 01:47:04;;;;;;;39.05;28.35;;;25.60;77.80;;;;;;4212467;28;20043;-67
2022/04/09 01:49:11;;;;;;;39.03;28.33;;;25.50;75.60;;;;;;4215017;28;20040;-67
2022/04/09 01:51:16;;;;;;;40.00;27.50;;;25.60;76.80;;;;;;4215781;28;20052;-66
2022/04/09 01:53:21;;;;;;;33.30;26.40;;;25.70;75.30;;;;;;4213166;28;20046;-67
2022/04/09 01:55:32;;;;;;;33.08;25.75;;;25.60;74.20;;;;;;4198740;28;20041;-67
2022/04/09 01:57:37;;;;;;;32.53;26.50;;;25.60;73.80;;;;;;4215458;28;20060;-67
2022/04/09 01:59:44;;;;;;;36.65;26.17;;;25.60;74.20;;;;;;4215232;28;20089;-67
2022/04/09 02:01:53;;;;;;;31.23;25.60;;;25.70;73.80;;;;;;4216124;28;20048;-68
2022/04/09 02:03:59;;;;;;;42.33;27.33;;;25.90;74.90;;;;;;4216206;28;20036;-68
2022/04/09 02:06:08;;;;;;;34.28;27.48;;;26.00;74.80;;;;;;4215556;28;20043;-69
2022/04/09 02:08:17;;;;;;;35.30;28.23;;;26.00;75.30;;;;;;4180457;28;20053;-66
2022/04/09 02:10:23;;;;;;;34.03;27.33;;;26.00;75.40;;;;;;4213716;28;20036;-67
2022/04/09 02:12:33;;;;;;;36.10;28.38;;;26.10;75.40;;;;;;4215643;28;20044;-69
2022/04/09 02:14:42;;;;;;;41.63;30.05;;;26.10;75.40;;;;;;4197746;28;20076;-68
2022/04/09 02:16:48;;;;;;;35.78;27.88;;;26.20;76.00;;;;;;4215198;28;20089;-68
2022/04/09 02:18:52;;;;;;;32.67;27.08;;;26.30;76.10;;;;;;4217313;28;20067;-67
2022/04/09 02:21:00;;;;;;;31.38;26.13;;;26.30;75.80;;;;;;4203987;28;20117;-68
2022/04/09 02:23:05;;;;;;;39.22;26.83;;;26.30;75.20;;;;;;4218458;28;20046;-67
2022/04/09 02:25:11;;;;;;;33.88;26.77;;;26.40;75.70;;;;;;4205641;28;20041;-67
2022/04/09 02:27:19;;;;;;;33.08;26.02;;;26.50;75.20;;;;;;4204083;28;20404;-68
2022/04/09 02:29:24;;;;;;;35.25;27.40;;;26.40;74.20;;;;;;4204325;28;20067;-68
2022/04/09 02:31:29;;;;;;;33.53;26.77;;;26.50;74.90;;;;;;4203213;28;20517;-68
2022/04/09 02:33:37;;;;;;;30.98;26.05;;;26.60;75.50;;;;;;4204096;28;20041;-69
2022/04/09 02:35:42;;;;;;;33.08;25.05;;;26.70;75.20;;;;;;4203563;28;20044;-68
2022/04/09 02:37:49;;;;;;;33.65;25.38;;;26.70;74.70;;;;;;4215828;28;20102;-68
2022/04/09 02:39:58;;;;;;;29.50;25.25;;;26.80;75.00;;;;;;4219933;28;20054;-69
2022/04/09 02:42:06;;;;;;;32.95;27.48;;;26.80;76.00;;;;;;4221438;28;20052;-69
2022/04/09 02:44:10;;;;;;;37.00;28.50;;;26.90;76.00;;;;;;4220552;28;20051;-66
2022/04/09 02:46:20;;;;;;;33.33;27.20;;;27.00;75.90;;;;;;4220864;28;20063;-67
2022/04/09 02:48:26;;;;;;;35.53;26.95;;;27.10;75.80;;;;;;4220638;28;20072;-68
2022/04/09 02:50:30;;;;;;;31.08;26.30;;;27.10;76.50;;;;;;4220284;28;20040;-70
2022/04/09 02:52:45;;;;;;;31.83;25.83;;;27.20;75.50;;;;;;4168891;28;20045;-68
2022/04/09 02:54:55;;;;;;;35.63;25.35;;;27.10;74.00;;;;;;4217602;28;20048;-68
2022/04/09 02:57:01;;;;;;;28.80;24.00;;;27.10;74.30;;;;;;4217884;28;20079;-69
2022/04/09 02:59:13;;;;;;;30.80;24.30;;;27.10;73.80;;;;;;4221030;28;20055;-68
2022/04/09 03:01:17;;;;;;;29.27;25.13;;;27.20;74.10;;;;;;4220747;28;20047;-68
2022/04/09 03:03:23;;;;;;;31.45;25.00;;;27.20;73.30;;;;;;4220092;28;20058;-68
2022/04/09 03:05:31;;;;;;;31.75;24.30;;;27.30;74.00;;;;;;4220303;28;20052;-68
2022/04/09 03:07:39;;;;;;;30.92;25.02;;;27.30;74.30;;;;;;4218582;28;20097;-68
2022/04/09 03:09:43;;;;;;;32.10;24.73;;;27.40;74.00;;;;;;4220818;28;20036;-68
2022/04/09 03:11:53;;;;;;;31.55;25.45;;;27.40;74.40;;;;;;4220616;28;20036;-69
2022/04/09 03:13:58;;;;;;;35.75;24.48;;;27.50;74.00;;;;;;4220936;28;20044;-69
2022/04/09 03:16:04;;;;;;;35.67;24.52;;;27.50;73.00;;;;;;4219470;28;20040;-69
2022/04/09 03:18:14;;;;;;;34.90;23.42;;;27.40;73.30;;;;;;4186176;28;20073;-69
2022/04/09 03:20:20;;;;;;;39.40;23.45;;;27.40;73.00;;;;;;4237813;28;20058;-67
2022/04/09 03:22:27;;;;;;;29.60;23.42;;;27.50;73.60;;;;;;4220382;28;20070;-69
2022/04/09 03:24:35;;;;;;;29.98;22.85;;;27.60;73.50;;;;;;4219515;28;20382;-69
2022/04/09 03:26:40;;;;;;;31.73;23.08;;;27.70;73.20;;;;;;4218252;28;20046;-68
2022/04/09 03:28:45;;;;;;;33.45;24.35;;;27.70;73.30;;;;;;4217442;28;20506;-68
2022/04/09 03:30:53;;;;;;;36.40;24.60;;;27.80;72.60;;;;;;4217426;28;20035;-66
2022/04/09 03:32:58;;;;;;;32.85;23.85;;;27.80;73.00;;;;;;4219268;28;20406;-67
2022/04/09 03:35:07;;;;;;;32.67;23.55;;;27.70;72.90;;;;;;4235758;28;20043;-68
2022/04/09 03:37:16;;;;;;;30.85;23.23;;;27.80;73.30;;;;;;4216813;28;20056;-68
2022/04/09 03:39:21;;;;;;;31.08;23.90;;;27.90;73.20;;;;;;4218860;28;20044;-67
2022/04/09 03:41:27;;;;;;;29.73;23.95;;;28.10;73.60;;;;;;4220299;28;20048;-68
2022/04/09 03:43:39;;;;;;;28.55;23.45;;;28.00;73.00;;;;;;4218898;28;20100;-67
2022/04/09 03:45:46;;;;;;;31.33;23.38;;;28.00;73.30;;;;;;4221992;28;20055;-68
2022/04/09 03:47:51;;;;;;;30.92;21.95;;;28.10;73.20;;;;;;4218134;28;20127;-68
2022/04/09 03:50:03;;;;;;;28.02;22.25;;;28.20;71.90;;;;;;4204116;28;20052;-68
2022/04/09 03:52:10;;;;;;;28.27;21.83;;;28.30;72.00;;;;;;4202535;28;20079;-68
2022/04/09 03:54:16;;;;;;;31.63;24.65;;;28.40;72.60;;;;;;4203767;28;20075;-68
2022/04/09 03:56:24;;;;;;;28.65;22.98;;;28.40;73.40;;;;;;4156336;28;20100;-69
2022/04/09 03:58:29;;;;;;;28.10;23.30;;;28.20;73.50;;;;;;4217084;28;20050;-68
2022/04/09 04:00:34;;;;;;;30.77;24.40;;;28.20;73.30;;;;;;4217840;28;20048;-67
2022/04/09 04:02:39;;;;;;;30.98;24.10;;;28.30;73.50;;;;;;4217099;28;20075;-68
2022/04/09 04:04:46;;;;;;;29.25;23.00;;;28.10;73.40;;;;;;4233336;28;20583;-69
2022/04/09 04:06:52;;;;;;;29.52;23.88;;;28.20;74.50;;;;;;4221615;28;20051;-68
2022/04/09 04:08:57;;;;;;;28.85;23.80;;;28.20;73.20;;;;;;4216339;28;20063;-68
2022/04/09 04:11:03;;;;;;;29.00;24.00;;;28.20;74.00;;;;;;4216001;28;20038;-67
2022/04/09 04:13:11;;;;;;;28.90;22.90;;;28.40;73.30;;;;;;4212066;28;20499;-68
2022/04/09 04:15:16;;;;;;;25.05;21.73;;;28.40;73.50;;;;;;4215630;28;20395;-68
2022/04/09 04:17:24;;;;;;;33.47;23.10;;;28.50;73.10;;;;;;4213846;28;20040;-67
2022/04/09 04:19:29;;;;;;;27.77;21.13;;;28.60;71.30;;;;;;4208879;28;20044;-69
2022/04/09 04:21:39;;;;;;;28.52;22.42;;;28.50;71.40;;;;;;4209747;28;20154;-69
2022/04/09 04:23:46;;;;;;;33.08;22.60;;;28.60;72.30;;;;;;4211554;28;20583;-68
2022/04/09 04:25:55;;;;;;;33.60;23.02;;;28.70;72.00;;;;;;4211085;28;20036;-68
2022/04/09 04:28:07;;;;;;;26.33;20.95;;;28.90;72.10;;;;;;4209003;28;20054;-69
2022/04/09 04:30:14;;;;;;;28.70;21.52;;;29.00;68.80;;;;;;4211903;28;20082;-67
2022/04/09 04:32:19;;;;;;;27.08;21.95;;;28.90;70.90;;;;;;4211943;28;20048;-68
2022/04/09 04:34:30;;;;;;;27.25;22.17;;;28.80;70.90;;;;;;4211422;28;20090;-71
2022/04/09 04:36:36;;;;;;;27.75;21.95;;;28.90;71.70;;;;;;4176473;28;20132;-69
2022/04/09 04:38:41;;;;;;;31.23;22.45;;;28.90;71.90;;;;;;4225816;28;20051;-70
2022/04/09 04:40:50;;;;;;;28.52;22.35;;;28.90;72.10;;;;;;4210253;28;20050;-69
2022/04/09 04:42:55;;;;;;;29.60;22.17;;;29.00;71.80;;;;;;4212334;28;20079;-68
2022/04/09 04:45:04;;;;;;;26.88;22.35;;;29.00;70.50;;;;;;4210890;28;20039;-69
2022/04/09 04:47:11;;;;;;;28.05;21.75;;;29.10;70.00;;;;;;4209158;28;20042;-69
2022/04/09 04:49:19;;;;;;;30.85;21.42;;;28.90;70.60;;;;;;4205597;28;20052;-69
2022/04/09 04:51:27;;;;;;;29.15;21.58;;;28.90;71.20;;;;;;4211071;28;20180;-70
2022/04/09 04:53:35;;;;;;;30.42;21.45;;;28.80;69.70;;;;;;4228470;28;20081;-69
2022/04/09 04:55:41;;;;;;;26.42;20.55;;;28.90;70.00;;;;;;4211549;28;20052;-69
2022/04/09 04:57:52;;;;;;;26.75;21.42;;;29.10;68.60;;;;;;4228285;28;20603;-68
2022/04/09 05:00:22;;;;;;;25.13;20.80;;;29.30;69.80;;;;;;4212710;28;20047;-71
2022/04/09 05:02:32;;;;;;;26.60;20.95;;;29.40;69.60;;;;;;4228333;28;20126;-69
2022/04/09 05:04:40;;;;;;;27.13;21.85;;;29.30;70.30;;;;;;4211244;28;20446;-71
2022/04/09 05:06:50;;;;;;;28.08;21.70;;;29.40;69.80;;;;;;4210754;28;20059;-67
2022/04/09 05:08:57;;;;;;;28.88;21.38;;;29.50;69.50;;;;;;4228351;28;20161;-69
2022/04/09 05:11:17;;;;;;;27.30;21.80;;;29.40;69.10;;;;;;4221734;28;20671;-67
2022/04/09 05:13:27;;;;;;;24.15;21.08;;;29.60;69.00;;;;;;4211124;28;20444;-67
2022/04/09 05:15:33;;;;;;;27.00;21.10;;;29.60;68.80;;;;;;4210904;28;20055;-69
2022/04/09 05:17:40;;;;;;;34.00;21.40;;;29.60;69.20;;;;;;4193609;28;20684;-65
2022/04/09 05:19:47;;;;;;;30.08;21.50;;;29.70;69.30;;;;;;4211337;28;20044;-67
2022/04/09 05:21:53;;;;;;;28.98;21.08;;;29.80;69.10;;;;;;4210791;28;20457;-68
2022/04/09 05:24:00;;;;;;;28.08;22.13;;;29.80;68.60;;;;;;4208662;28;20639;-67
2022/04/09 05:26:09;;;;;;;25.35;20.73;;;29.60;68.70;;;;;;4174762;28;20033;-68
2022/04/09 05:28:15;;;;;;;23.40;20.77;;;29.70;69.30;;;;;;4208320;28;20055;-68
2022/04/09 05:30:44;;;;;;;31.63;21.20;;;29.80;69.00;;;;;;4173987;28;20080;-68
2022/04/09 05:32:51;;;;;;;28.65;20.38;;;29.70;68.30;;;;;;4140595;28;20046;-68
2022/04/09 05:34:57;;;;;;;26.05;21.17;;;29.60;68.40;;;;;;4183772;28;20045;-67
2022/04/09 05:37:04;;;;;;;27.15;20.98;;;29.70;69.10;;;;;;4187562;28;20171;-68
2022/04/09 05:39:12;;;;;;;28.17;20.48;;;29.80;68.40;;;;;;4189574;28;20167;-68
2022/04/09 05:41:17;;;;;;;27.65;20.55;;;29.80;68.10;;;;;;4191895;28;20052;-68
2022/04/09 05:43:23;;;;;;;27.10;20.00;;;29.90;69.50;;;;;;4181944;28;20037;-67
2022/04/09 05:45:35;;;;;;;25.30;20.35;;;30.00;68.90;;;;;;4187202;28;20550;-67
2022/04/09 05:47:45;;;;;;;28.33;21.77;;;30.10;68.40;;;;;;4175928;28;20053;-67
2022/04/09 05:49:58;;;;;;;27.42;21.13;;;30.20;68.50;;;;;;4175677;28;20045;-69
2022/04/09 05:52:08;;;;;;;24.85;19.40;;;30.10;68.50;;;;;;4127168;28;20211;-67
2022/04/09 05:54:14;;;;;;;28.92;21.02;;;30.10;68.00;;;;;;4173040;28;20071;-66
2022/04/09 05:56:22;;;;;;;25.10;19.52;;;30.20;67.60;;;;;;4202136;28;20047;-68
2022/04/09 05:58:28;;;;;;;25.02;20.33;;;30.20;66.90;;;;;;4206456;28;20062;-68
2022/04/09 06:00:52;;;;;;;24.38;19.80;;;30.20;67.70;;;;;;4168957;28;20068;-69
2022/04/09 06:03:11;;;;;;;31.08;21.38;;;30.30;67.70;;;;;;4169194;28;20064;-67
2022/04/09 06:05:19;;;;;;;26.27;20.67;;;30.10;67.60;;;;;;4168849;28;20073;-68
2022/04/09 06:07:27;;;;;;;26.55;21.38;;;30.20;68.00;;;;;;4169153;28;20052;-68
2022/04/09 06:09:42;;;;;;;26.75;21.77;;;30.20;66.20;;;;;;4168212;28;20037;-68
2022/04/09 06:11:51;;;;;;;28.05;21.38;;;30.10;65.60;;;;;;4167383;28;20127;-68
2022/04/09 06:14:02;;;;;;;26.77;21.60;;;30.20;66.10;;;;;;4169010;28;20041;-69
2022/04/09 06:16:12;;;;;;;26.33;20.75;;;30.30;66.30;;;;;;4120417;28;20547;-67
2022/04/09 06:18:26;;;;;;;27.40;21.02;;;30.40;66.50;;;;;;4148619;28;20045;-66
2022/04/09 06:20:31;;;;;;;28.33;21.33;;;30.40;66.20;;;;;;4169668;28;20049;-67
2022/04/09 06:22:39;;;;;;;23.85;21.35;;;30.40;63.80;;;;;;4155150;28;20053;-66
2022/04/09 06:24:47;;;;;;;26.42;22.23;;;30.40;64.00;;;;;;4154515;28;20053;-66
2022/04/09 06:26:54;;;;;;;27.00;22.58;;;30.50;64.70;;;;;;4202259;28;20066;-66
2022/04/09 06:29:05;;;;;;;25.77;22.38;;;30.70;64.70;;;;;;4205699;28;20055;-66
2022/04/09 06:31:15;;;;;;;30.85;24.15;;;30.70;66.00;;;;;;4206357;28;20043;-65
2022/04/09 06:33:23;;;;;;;39.65;30.73;;;30.70;65.00;;;;;;4188277;28;20044;-69
2022/04/09 06:35:30;;;;;;;38.72;28.55;;;30.40;64.70;;;;;;4205853;28;20043;-66
2022/04/09 06:37:43;;;;;;;37.50;25.63;;;30.50;65.50;;;;;;4207136;28;20113;-67
2022/04/09 06:39:50;;;;;;;35.50;25.15;;;30.70;64.90;;;;;;4205579;28;20036;-66
2022/04/09 06:41:57;;;;;;;28.98;23.15;;;30.80;65.40;;;;;;4207373;28;20056;-66
2022/04/09 06:44:25;;;;;;;29.77;22.38;;;30.90;65.10;;;;;;4208390;28;20678;-67
2022/04/09 06:46:43;;;;;;;29.38;25.42;;;31.00;65.30;;;;;;4206864;28;20044;-67
2022/04/09 06:49:11;;;;;;;31.35;24.02;;;31.00;64.00;;;;;;4206006;28;20064;-67
2022/04/09 06:51:23;;;;;;;;;;;30.90;64.60;;;;;;4209128;28;20548;-68
2022/04/09 06:53:34;;;;;;;25.77;21.73;;;30.90;63.20;;;;;;4206104;28;19924;-68
2022/04/09 06:55:41;;;;;;;26.02;21.42;;;31.00;63.80;;;;;;4207305;28;20481;-65
2022/04/09 06:57:49;;;;;;;27.55;22.00;;;30.90;64.20;;;;;;4205010;28;20129;-70
2022/04/09 07:00:04;;;;;;;27.63;21.33;;;31.00;64.20;;;;;;4207421;28;20785;-68
2022/04/09 07:02:33;;;;;;;26.77;20.00;;;31.00;63.90;;;;;;4208222;28;20036;-66
2022/04/09 07:04:39;;;;;;;28.35;20.77;;;30.80;65.10;;;;;;4211308;28;20048;-67
2022/04/09 07:06:54;;;;;;;31.42;22.38;;;30.70;65.20;;;;;;4212854;28;20101;-66
2022/04/09 07:09:01;;;;;;;28.70;24.60;;;30.70;65.10;;;;;;4211503;28;20043;-67
2022/04/09 07:11:12;;;;;;;26.55;22.15;;;30.70;63.90;;;;;;4210567;28;20241;-67
2022/04/09 07:13:18;;;;;;;27.00;21.38;;;30.70;63.40;;;;;;4213342;28;20051;-67
2022/04/09 07:15:24;;;;;;;27.63;21.10;;;30.70;64.70;;;;;;4211680;28;20595;-68
2022/04/09 07:17:36;;;;;;;26.25;22.10;;;30.60;65.30;;;;;;4212456;28;20089;-67
2022/04/09 07:19:44;;;;;;;30.77;22.13;;;30.80;65.80;;;;;;4210834;28;20049;-68
2022/04/09 07:21:49;;;;;;;29.35;21.20;;;30.90;65.90;;;;;;4212582;28;20039;-67
2022/04/09 07:23:58;;;;;;;24.70;21.48;;;31.10;65.20;;;;;;4212089;28;20044;-65
2022/04/09 07:26:04;;;;;;;29.70;22.30;;;31.20;64.40;;;;;;4211568;28;20079;-69
2022/04/09 07:28:10;;;;;;;27.35;22.65;;;31.00;64.10;;;;;;4177720;28;20515;-71
2022/04/09 07:30:20;;;;;;;29.92;21.35;;;30.80;64.50;;;;;;4212940;28;20058;-66
2022/04/09 07:32:48;;;;;;;24.95;21.73;;;30.90;63.90;;;;;;4210919;28;20127;-66
2022/04/09 07:34:56;;;;;;;27.92;21.75;;;31.00;64.60;;;;;;4200515;28;20078;-66
2022/04/09 07:37:31;;;;;;;25.73;22.80;;;31.10;64.50;;;;;;4207426;28;20051;-68
2022/04/09 07:39:41;;;;;;;26.63;21.75;;;31.20;64.00;;;;;;4212939;28;20044;-68
2022/04/09 07:41:55;;;;;;;27.58;21.13;;;31.20;63.80;;;;;;4164650;28;20083;-68
2022/04/09 07:44:00;;;;;;;25.27;22.33;;;31.30;64.50;;;;;;4211642;28;20592;-68
2022/04/09 07:46:04;;;;;;;29.90;21.98;;;31.30;65.50;;;;;;4210208;28;20542;-69
2022/04/09 07:48:11;;;;;;;30.40;22.40;;;31.30;64.60;;;;;;4211346;28;20056;-69
2022/04/09 07:50:17;;;;;;;29.92;22.48;;;31.30;64.30;;;;;;4208258;28;20077;-69
2022/04/09 07:52:23;;;;;;;26.33;22.73;;;31.30;64.40;;;;;;4212732;28;20048;-69
2022/04/09 07:54:29;;;;;;;25.45;22.58;;;31.20;64.40;;;;;;4210521;28;20478;-69
2022/04/09 07:56:35;;;;;;;26.88;22.27;;;31.30;63.80;;;;;;4176509;28;20400;-69
2022/04/09 07:58:40;;;;;;;28.65;21.10;;;31.20;63.90;;;;;;4212448;28;20058;-70
2022/04/09 08:00:45;;;;;;;25.85;21.38;;;31.20;64.80;;;;;;4208435;28;20055;-69
2022/04/09 08:02:54;;;;;;;28.27;21.92;;;31.20;64.10;;;;;;4212202;28;20051;-68
2022/04/09 08:05:00;;;;;;;26.58;22.67;;;31.00;64.80;;;;;;4212755;28;20056;-69
2022/04/09 08:07:04;;;;;;;27.15;22.77;;;31.10;65.10;;;;;;4208715;28;20453;-69
2022/04/09 08:09:14;;;;;;;26.90;22.80;;;31.10;65.10;;;;;;4209710;28;20507;-69
2022/04/09 08:11:19;;;;;;;31.73;23.55;;;31.20;64.00;;;;;;4212171;28;20044;-70
2022/04/09 08:13:24;;;;;;;25.85;22.33;;;31.20;63.90;;;;;;4209650;28;20055;-69
2022/04/09 08:15:33;;;;;;;29.52;22.63;;;31.30;62.70;;;;;;4211967;28;20043;-70
2022/04/09 08:17:38;;;;;;;30.25;23.23;;;31.30;63.90;;;;;;4209987;28;20080;-70
2022/04/09 08:19:43;;;;;;;31.55;22.70;;;31.30;64.40;;;;;;4206492;28;20044;-70
2022/04/09 08:21:53;;;;;;;28.40;22.20;;;31.20;64.30;;;;;;4209536;28;20043;-70
2022/04/09 08:23:58;;;;;;;29.48;22.38;;;31.20;63.30;;;;;;4211028;28;20035;-70
2022/04/09 08:26:03;;;;;;;25.90;21.52;;;31.20;63.20;;;;;;4212227;28;20043;-70
2022/04/09 08:28:12;;;;;;;29.33;22.15;;;31.20;62.70;;;;;;4210032;28;20573;-70
2022/04/09 08:30:17;;;;;;;28.90;22.98;;;31.10;63.70;;;;;;4210605;28;20058;-70
2022/04/09 08:32:25;;;;;;;31.90;22.38;;;31.20;63.90;;;;;;4212072;28;20036;-72
2022/04/09 08:34:38;;;;;;;30.27;22.30;;;31.20;64.40;;;;;;4210065;28;20042;-70
2022/04/09 08:36:43;;;;;;;28.52;22.30;;;31.20;64.80;;;;;;4209677;28;20744;-70
2022/04/09 08:38:49;;;;;;;28.17;22.20;;;31.10;64.50;;;;;;4209729;28;20463;-72
2022/04/09 08:40:57;;;;;;;24.10;20.90;;;31.10;63.80;;;;;;4211599;28;20043;-70
2022/04/09 08:43:02;;;;;;;24.90;20.52;;;31.10;63.30;;;;;;4211453;28;20043;-70
2022/04/09 08:45:07;;;;;;;23.48;20.60;;;31.10;62.90;;;;;;4208342;28;20547;-70
2022/04/09 08:47:15;;;;;;;26.23;20.98;;;31.10;62.90;;;;;;4176188;28;20512;-70
2022/04/09 08:49:22;;;;;;;25.92;21.15;;;31.10;63.00;;;;;;4210533;28;20040;-70
2022/04/09 08:51:27;;;;;;;24.90;21.10;;;31.00;61.80;;;;;;4209423;28;20110;-70
2022/04/09 08:53:37;;;;;;;31.10;21.42;;;31.10;62.80;;;;;;4211868;28;20082;-69
2022/04/09 08:55:44;;;;;;;29.20;21.33;;;31.00;63.10;;;;;;4211482;28;20048;-69
2022/04/09 08:57:48;;;;;;;29.98;22.02;;;31.10;63.40;;;;;;4212314;28;20039;-69
2022/04/09 08:59:56;;;;;;;29.35;21.65;;;31.10;63.10;;;;;;4213021;28;20089;-73
2022/04/09 09:02:01;;;;;;;33.17;21.80;;;31.20;64.40;;;;;;4212803;28;20036;-69
2022/04/09 09:04:08;;;;;;;25.85;20.40;;;31.20;63.90;;;;;;4212732;28;20051;-69
2022/04/09 09:06:25;;;;;;;28.83;20.92;;;31.20;62.80;;;;;;4212641;28;20066;-69
2022/04/09 09:08:43;;;;;;;29.10;20.83;;;31.20;63.20;;;;;;4213177;28;20097;-70
2022/04/09 09:10:58;;;;;;;30.25;20.90;;;31.20;63.40;;;;;;4212907;28;20032;-70
2022/04/09 09:13:08;;;;;;;26.67;20.92;;;31.20;63.00;;;;;;4212463;28;20106;-70
2022/04/09 09:15:19;;;;;;;24.02;20.45;;;31.20;63.10;;;;;;4212653;28;20093;-70
2022/04/09 09:17:28;;;;;;;30.08;21.90;;;31.20;63.50;;;;;;4176371;28;20385;-69
2022/04/09 09:19:45;;;;;;;26.63;21.52;;;31.20;63.40;;;;;;4207530;28;20754;-70
2022/04/09 09:21:55;;;;;;;25.20;20.75;;;31.10;62.80;;;;;;4210807;28;20098;-68
2022/04/09 09:24:13;;;;;;;27.90;21.88;;;31.00;63.70;;;;;;4209978;28;20059;-69
2022/04/09 09:26:24;;;;;;;26.85;21.90;;;31.00;63.10;;;;;;4209667;28;20386;-69
2022/04/09 09:28:32;;;;;;;25.92;21.45;;;31.10;63.30;;;;;;4210729;28;20052;-69
2022/04/09 09:30:49;;;;;;;28.90;22.67;;;31.10;63.50;;;;;;4209169;28;20035;-67
2022/04/09 09:33:07;;;;;;;26.30;21.48;;;31.10;63.70;;;;;;4209376;28;20043;-68
2022/04/09 09:36:03;;;;;;;28.52;20.40;;;31.20;64.10;;;;;;4211652;28;20032;-67
2022/04/09 09:38:23;;;;;;;26.58;20.15;;;31.10;61.90;;;;;;4209576;28;20063;-68
2022/04/09 09:40:32;;;;;;;24.48;20.60;;;31.00;62.40;;;;;;4210838;28;20048;-70
2022/04/09 09:42:36;;;;;;;24.20;20.45;;;31.00;63.10;;;;;;4208998;28;20039;-68
2022/04/09 09:44:46;;;;;;;25.27;20.88;;;30.90;62.80;;;;;;4211367;28;20052;-68
2022/04/09 09:46:51;;;;;;;24.23;20.73;;;30.90;62.70;;;;;;4211472;28;20044;-69
2022/04/09 09:48:59;;;;;;;24.83;20.45;;;30.80;62.70;;;;;;4206789;28;20687;-69
2022/04/09 09:51:10;;;;;;;26.80;20.73;;;30.80;62.40;;;;;;4176235;28;20041;-68
2022/04/09 09:53:15;;;;;;;24.05;21.42;;;30.80;63.30;;;;;;4206830;28;20082;-70
2022/04/09 09:55:24;;;;;;;25.25;20.92;;;30.80;63.80;;;;;;4211203;28;20150;-70
2022/04/09 09:57:33;;;;;;;27.25;21.98;;;30.90;64.20;;;;;;4210904;28;20550;-70
2022/04/09 09:59:39;;;;;;;32.20;23.77;;;30.90;65.40;;;;;;4196725;28;20044;-70
2022/04/09 10:01:54;;;;;;;36.17;24.92;;;30.90;65.80;;;;;;4190027;28;20056;-68
2022/04/09 10:04:06;;;;;;;33.05;24.88;;;30.90;66.00;;;;;;4203981;28;20040;-69
2022/04/09 10:06:12;;;;;;;34.10;25.88;;;31.00;66.40;;;;;;4205524;28;20052;-70
2022/04/09 10:08:19;;;;;;;36.05;26.02;;;31.00;66.60;;;;;;4203145;28;20384;-68
2022/04/09 10:10:26;;;;;;;36.08;25.48;;;30.90;66.60;;;;;;4204967;28;20478;-70
2022/04/09 10:12:39;;;;;;;29.05;24.38;;;30.90;66.70;;;;;;4204140;28;20047;-70
2022/04/09 10:14:58;;;;;;;31.85;25.67;;;30.90;66.70;;;;;;4203731;28;20744;-67
2022/04/09 10:17:09;;;;;;;30.15;23.92;;;30.90;67.60;;;;;;4205487;28;20048;-70
2022/04/09 10:19:25;;;;;;;32.70;24.58;;;30.80;67.40;;;;;;4196286;28;20048;-68
2022/04/09 10:21:33;;;;;;;35.55;26.15;;;30.80;67.80;;;;;;4203843;28;20127;-69
2022/04/09 10:23:43;;;;;;;36.92;26.90;;;30.80;68.00;;;;;;4204341;28;20036;-69
2022/04/09 10:25:52;;;;;;;41.67;28.98;;;30.80;68.40;;;;;;4154038;28;20116;-70
2022/04/09 10:28:06;;;;;;;40.63;28.65;;;30.80;68.80;;;;;;4203048;28;20059;-70
2022/04/09 10:30:28;;;;;;;45.38;30.00;;;30.80;69.00;;;;;;4203717;28;20152;-69
2022/04/09 10:32:48;;;;;;;39.53;28.10;;;30.70;69.00;;;;;;4205231;28;20048;-71
2022/04/09 10:34:55;;;;;;;39.28;26.33;;;30.70;69.50;;;;;;4205376;28;20105;-69
2022/04/09 10:37:08;;;;;;;36.08;27.05;;;30.60;69.90;;;;;;4183720;28;20051;-70
2022/04/09 10:39:41;;;;;;;43.17;27.75;;;30.60;70.00;;;;;;4204726;28;20642;-70
2022/04/09 10:41:46;;;;;;;51.40;31.73;;;30.60;70.00;;;;;;4207005;28;20082;-70
2022/04/09 10:43:57;;;;;;;64.93;34.95;;;30.60;70.00;;;;;;4154985;28;20080;-69
2022/04/09 10:46:21;;;;;;;49.35;30.42;;;30.60;70.20;;;;;;4155091;28;20049;-69
2022/04/09 10:48:33;;;;;;;49.38;30.80;;;30.50;71.80;;;;;;4158969;28;20050;-69
2022/04/09 10:50:55;;;;;;;46.05;27.55;;;30.50;71.60;;;;;;4160455;28;20060;-69
2022/04/09 10:53:02;;;;;;;37.58;25.48;;;30.40;73.30;;;;;;4159770;28;20135;-70
2022/04/09 10:55:31;;;;;;;37.92;26.55;;;30.40;74.00;;;;;;4144716;28;20042;-70